sensor_id;sensor_type;location;lat;lon;timestamp;temperature;humidity
56300;DHT22;42209;6.376;-10.782;2023-04-25T00:01:17;22.50;49.00
56300;DHT22;42209;6.376;-10.782;2023-04-25T00:03:45;22.50;47.60
56300;DHT22;42209;6.376;-10.782;2023-04-25T00:06:14;22.40;46.60
56300;DHT22;42209;6.376;-10.782;2023-04-25T00:08:42;22.40;46.00
56300;DHT22;42209;6.376;-10.782;2023-04-25T00:11:10;22.30;45.20
56300;DHT22;42209;6.376;-10.782;2023-04-25T00:13:39;22.30;44.70
56300;DHT22;42209;6.376;-10.782;2023-04-25T00:16:09;22.20;44.10
56300;DHT22;42209;6.376;-10.782;2023-04-25T00:18:37;22.20;43.60
56300;DHT22;42209;6.376;-10.782;2023-04-25T00:21:06;22.20;43.00
56300;DHT22;42209;6.376;-10.782;2023-04-25T00:23:34;22.20;42.60
56300;DHT22;42209;6.376;-10.782;2023-04-25T00:26:02;22.20;42.30
56300;DHT22;42209;6.376;-10.782;2023-04-25T00:28:31;22.10;42.00
56300;DHT22;42209;6.376;-10.782;2023-04-25T00:30:59;22.10;41.60
56300;DHT22;42209;6.376;-10.782;2023-04-25T00:33:27;22.10;41.50
56300;DHT22;42209;6.376;-10.782;2023-04-25T00:35:56;22.00;41.10
56300;DHT22;42209;6.376;-10.782;2023-04-25T00:38:24;22.00;40.80
56300;DHT22;42209;6.376;-10.782;2023-04-25T00:40:52;22.00;40.60
56300;DHT22;42209;6.376;-10.782;2023-04-25T00:43:21;22.00;40.60
56300;DHT22;42209;6.376;-10.782;2023-04-25T00:45:51;21.90;40.10
56300;DHT22;42209;6.376;-10.782;2023-04-25T00:48:23;21.90;40.00
56300;DHT22;42209;6.376;-10.782;2023-04-25T00:50:54;21.80;39.70
56300;DHT22;42209;6.376;-10.782;2023-04-25T00:53:24;21.90;43.00
56300;DHT22;42209;6.376;-10.782;2023-04-25T00:55:54;22.00;48.90
56300;DHT22;42209;6.376;-10.782;2023-04-25T00:58:22;22.20;51.70
56300;DHT22;42209;6.376;-10.782;2023-04-25T01:00:51;22.50;53.90
56300;DHT22;42209;6.376;-10.782;2023-04-25T01:03:20;22.60;55.40
56300;DHT22;42209;6.376;-10.782;2023-04-25T01:05:50;22.80;57.30
56300;DHT22;42209;6.376;-10.782;2023-04-25T01:08:18;22.90;58.10
56300;DHT22;42209;6.376;-10.782;2023-04-25T01:10:49;22.90;54.70
56300;DHT22;42209;6.376;-10.782;2023-04-25T01:13:17;22.70;50.50
56300;DHT22;42209;6.376;-10.782;2023-04-25T01:15:46;22.40;48.90
56300;DHT22;42209;6.376;-10.782;2023-04-25T01:18:14;22.40;55.80
56300;DHT22;42209;6.376;-10.782;2023-04-25T01:20:43;22.60;58.30
56300;DHT22;42209;6.376;-10.782;2023-04-25T01:23:13;22.80;59.60
56300;DHT22;42209;6.376;-10.782;2023-04-25T01:25:42;23.00;60.30
56300;DHT22;42209;6.376;-10.782;2023-04-25T01:28:10;23.10;57.20
56300;DHT22;42209;6.376;-10.782;2023-04-25T01:30:39;22.80;52.50
56300;DHT22;42209;6.376;-10.782;2023-04-25T01:33:09;22.50;50.80
56300;DHT22;42209;6.376;-10.782;2023-04-25T01:35:36;22.40;55.40
56300;DHT22;42209;6.376;-10.782;2023-04-25T01:38:05;22.50;58.20
56300;DHT22;42209;6.376;-10.782;2023-04-25T01:40:34;22.70;61.20
56300;DHT22;42209;6.376;-10.782;2023-04-25T01:43:05;22.90;62.50
56300;DHT22;42209;6.376;-10.782;2023-04-25T01:45:33;23.10;62.30
56300;DHT22;42209;6.376;-10.782;2023-04-25T01:48:02;23.00;55.60
56300;DHT22;42209;6.376;-10.782;2023-04-25T01:50:30;22.70;52.70
56300;DHT22;42209;6.376;-10.782;2023-04-25T01:52:58;22.50;51.30
56300;DHT22;42209;6.376;-10.782;2023-04-25T01:55:27;22.50;53.80
56300;DHT22;42209;6.376;-10.782;2023-04-25T01:58:02;22.60;58.10
56300;DHT22;42209;6.376;-10.782;2023-04-25T02:00:51;22.80;60.90
56300;DHT22;42209;6.376;-10.782;2023-04-25T02:03:20;23.00;62.70
56300;DHT22;42209;6.376;-10.782;2023-04-25T02:05:48;23.10;63.20
56300;DHT22;42209;6.376;-10.782;2023-04-25T02:08:17;23.00;56.30
56300;DHT22;42209;6.376;-10.782;2023-04-25T02:10:45;22.70;53.60
56300;DHT22;42209;6.376;-10.782;2023-04-25T02:13:17;22.50;51.90
56300;DHT22;42209;6.376;-10.782;2023-04-25T02:15:58;22.40;51.60
56300;DHT22;42209;6.376;-10.782;2023-04-25T02:18:26;22.50;58.30
56300;DHT22;42209;6.376;-10.782;2023-04-25T02:20:54;22.70;61.30
56300;DHT22;42209;6.376;-10.782;2023-04-25T02:23:23;22.90;62.50
56300;DHT22;42209;6.376;-10.782;2023-04-25T02:25:52;23.10;63.50
56300;DHT22;42209;6.376;-10.782;2023-04-25T02:28:21;23.10;61.00
56300;DHT22;42209;6.376;-10.782;2023-04-25T02:30:49;22.90;55.50
56300;DHT22;42209;6.376;-10.782;2023-04-25T02:33:17;22.60;53.40
56300;DHT22;42209;6.376;-10.782;2023-04-25T02:35:48;22.50;53.40
56300;DHT22;42209;6.376;-10.782;2023-04-25T02:38:17;22.50;60.10
56300;DHT22;42209;6.376;-10.782;2023-04-25T02:40:45;22.70;62.20
56300;DHT22;42209;6.376;-10.782;2023-04-25T02:43:13;22.90;63.70
56300;DHT22;42209;6.376;-10.782;2023-04-25T02:45:41;23.10;64.80
56300;DHT22;42209;6.376;-10.782;2023-04-25T02:48:09;23.10;61.40
56300;DHT22;42209;6.376;-10.782;2023-04-25T02:50:38;22.90;56.30
56300;DHT22;42209;6.376;-10.782;2023-04-25T02:53:06;22.70;54.10
56300;DHT22;42209;6.376;-10.782;2023-04-25T02:55:41;22.50;52.90
56300;DHT22;42209;6.376;-10.782;2023-04-25T02:58:09;22.50;59.60
56300;DHT22;42209;6.376;-10.782;2023-04-25T03:00:49;22.70;62.00
56300;DHT22;42209;6.376;-10.782;2023-04-25T03:03:18;22.90;64.00
56300;DHT22;42209;6.376;-10.782;2023-04-25T03:05:48;23.10;65.20
56300;DHT22;42209;6.376;-10.782;2023-04-25T03:08:19;23.20;63.70
56300;DHT22;42209;6.376;-10.782;2023-04-25T03:10:48;22.90;57.20
56300;DHT22;42209;6.376;-10.782;2023-04-25T03:13:16;22.70;54.70
56300;DHT22;42209;6.376;-10.782;2023-04-25T03:15:44;22.50;53.10
56300;DHT22;42209;6.376;-10.782;2023-04-25T03:18:12;22.40;58.30
56300;DHT22;42209;6.376;-10.782;2023-04-25T03:20:41;22.60;61.60
56300;DHT22;42209;6.376;-10.782;2023-04-25T03:23:09;22.80;62.80
56300;DHT22;42209;6.376;-10.782;2023-04-25T03:25:40;23.00;64.20
56300;DHT22;42209;6.376;-10.782;2023-04-25T03:28:08;23.20;66.40
56300;DHT22;42209;6.376;-10.782;2023-04-25T03:30:36;23.10;59.40
56300;DHT22;42209;6.376;-10.782;2023-04-25T03:33:04;22.80;55.80
56300;DHT22;42209;6.376;-10.782;2023-04-25T03:35:33;22.60;54.10
56300;DHT22;42209;6.376;-10.782;2023-04-25T03:38:01;22.50;52.30
56300;DHT22;42209;6.376;-10.782;2023-04-25T03:40:34;22.50;59.20
56300;DHT22;42209;6.376;-10.782;2023-04-25T03:43:16;22.70;61.50
56300;DHT22;42209;6.376;-10.782;2023-04-25T03:45:51;22.90;63.30
56300;DHT22;42209;6.376;-10.782;2023-04-25T03:48:22;23.10;65.30
56300;DHT22;42209;6.376;-10.782;2023-04-25T03:50:51;23.10;61.70
56300;DHT22;42209;6.376;-10.782;2023-04-25T03:53:19;22.90;56.90
56300;DHT22;42209;6.376;-10.782;2023-04-25T03:56:06;22.70;54.80
56300;DHT22;42209;6.376;-10.782;2023-04-25T03:58:36;22.50;53.10
56300;DHT22;42209;6.376;-10.782;2023-04-25T04:01:06;22.50;51.30
56300;DHT22;42209;6.376;-10.782;2023-04-25T04:03:37;22.30;50.10
56300;DHT22;42209;6.376;-10.782;2023-04-25T04:06:07;22.30;48.70
56300;DHT22;42209;6.376;-10.782;2023-04-25T04:08:39;22.30;47.90
56300;DHT22;42209;6.376;-10.782;2023-04-25T04:11:09;22.20;47.10
56300;DHT22;42209;6.376;-10.782;2023-04-25T04:13:37;22.10;46.10
56300;DHT22;42209;6.376;-10.782;2023-04-25T04:16:06;22.10;45.40
56300;DHT22;42209;6.376;-10.782;2023-04-25T04:18:35;22.10;44.90
56300;DHT22;42209;6.376;-10.782;2023-04-25T04:21:03;22.00;44.40
56300;DHT22;42209;6.376;-10.782;2023-04-25T04:23:35;22.00;43.60
56300;DHT22;42209;6.376;-10.782;2023-04-25T04:26:07;22.00;47.00
56300;DHT22;42209;6.376;-10.782;2023-04-25T04:28:45;22.20;52.60
56300;DHT22;42209;6.376;-10.782;2023-04-25T04:31:31;22.40;55.40
56300;DHT22;42209;6.376;-10.782;2023-04-25T04:34:00;22.50;57.40
56300;DHT22;42209;6.376;-10.782;2023-04-25T04:36:29;22.70;59.40
56300;DHT22;42209;6.376;-10.782;2023-04-25T04:38:58;22.80;60.80
56300;DHT22;42209;6.376;-10.782;2023-04-25T04:41:35;22.90;62.10
56300;DHT22;42209;6.376;-10.782;2023-04-25T04:44:26;23.00;59.80
56300;DHT22;42209;6.376;-10.782;2023-04-25T04:47:24;22.70;54.20
56300;DHT22;42209;6.376;-10.782;2023-04-25T04:50:12;22.40;52.10
56300;DHT22;42209;6.376;-10.782;2023-04-25T04:53:00;22.40;58.70
56300;DHT22;42209;6.376;-10.782;2023-04-25T04:55:54;22.50;61.10
56300;DHT22;42209;6.376;-10.782;2023-04-25T04:58:46;22.70;63.50
56300;DHT22;42209;6.376;-10.782;2023-04-25T05:01:34;22.90;64.70
56300;DHT22;42209;6.376;-10.782;2023-04-25T05:04:08;23.10;64.10
56300;DHT22;42209;6.376;-10.782;2023-04-25T05:06:48;22.90;57.20
56300;DHT22;42209;6.376;-10.782;2023-04-25T05:09:36;22.50;54.50
56300;DHT22;42209;6.376;-10.782;2023-04-25T05:12:19;22.40;59.20
56300;DHT22;42209;6.376;-10.782;2023-04-25T05:14:47;22.50;61.90
56300;DHT22;42209;6.376;-10.782;2023-04-25T05:17:34;22.70;64.20
56300;DHT22;42209;6.376;-10.782;2023-04-25T05:20:08;22.90;65.80
56300;DHT22;42209;6.376;-10.782;2023-04-25T05:22:57;23.00;67.20
56300;DHT22;42209;6.376;-10.782;2023-04-25T05:25:54;23.10;62.00
56300;DHT22;42209;6.376;-10.782;2023-04-25T05:28:42;22.70;57.00
56300;DHT22;42209;6.376;-10.782;2023-04-25T05:31:28;22.40;55.00
56300;DHT22;42209;6.376;-10.782;2023-04-25T05:34:08;22.40;61.80
56300;DHT22;42209;6.376;-10.782;2023-04-25T05:36:56;22.60;64.00
56300;DHT22;42209;6.376;-10.782;2023-04-25T05:39:25;22.90;66.00
56300;DHT22;42209;6.376;-10.782;2023-04-25T05:42:16;23.00;67.60
56300;DHT22;42209;6.376;-10.782;2023-04-25T05:45:14;23.10;65.70
56300;DHT22;42209;6.376;-10.782;2023-04-25T05:47:51;22.80;59.10
56300;DHT22;42209;6.376;-10.782;2023-04-25T05:50:26;22.50;56.70
56300;DHT22;42209;6.376;-10.782;2023-04-25T05:53:00;22.50;61.70
56300;DHT22;42209;6.376;-10.782;2023-04-25T05:55:42;22.70;64.70
56300;DHT22;42209;6.376;-10.782;2023-04-25T05:58:21;22.90;66.50
56300;DHT22;42209;6.376;-10.782;2023-04-25T06:00:49;23.00;67.40
56300;DHT22;42209;6.376;-10.782;2023-04-25T06:03:18;23.10;69.70
56300;DHT22;42209;6.376;-10.782;2023-04-25T06:05:49;23.10;63.00
56300;DHT22;42209;6.376;-10.782;2023-04-25T06:08:19;22.70;59.50
56300;DHT22;42209;6.376;-10.782;2023-04-25T06:10:47;22.50;57.70
56300;DHT22;42209;6.376;-10.782;2023-04-25T06:13:15;22.50;58.20
56300;DHT22;42209;6.376;-10.782;2023-04-25T06:15:44;22.50;63.70
56300;DHT22;42209;6.376;-10.782;2023-04-25T06:18:12;22.70;65.50
56300;DHT22;42209;6.376;-10.782;2023-04-25T06:20:41;22.90;65.70
56300;DHT22;42209;6.376;-10.782;2023-04-25T06:23:09;23.10;68.90
56300;DHT22;42209;6.376;-10.782;2023-04-25T06:25:52;23.20;69.70
56300;DHT22;42209;6.376;-10.782;2023-04-25T06:28:21;23.10;62.60
56300;DHT22;42209;6.376;-10.782;2023-04-25T06:30:50;22.80;58.80
56300;DHT22;42209;6.376;-10.782;2023-04-25T06:33:20;22.60;56.80
56300;DHT22;42209;6.376;-10.782;2023-04-25T06:35:49;22.60;62.50
56300;DHT22;42209;6.376;-10.782;2023-04-25T06:38:22;22.70;64.70
56300;DHT22;42209;6.376;-10.782;2023-04-25T06:40:51;22.80;66.50
56300;DHT22;42209;6.376;-10.782;2023-04-25T06:43:20;23.00;67.60
56300;DHT22;42209;6.376;-10.782;2023-04-25T06:46:04;23.10;68.40
56300;DHT22;42209;6.376;-10.782;2023-04-25T06:48:39;23.20;67.10
56300;DHT22;42209;6.376;-10.782;2023-04-25T06:51:07;22.90;60.30
56300;DHT22;42209;6.376;-10.782;2023-04-25T06:53:37;22.70;58.00
56300;DHT22;42209;6.376;-10.782;2023-04-25T06:56:08;22.60;56.00
56300;DHT22;42209;6.376;-10.782;2023-04-25T06:58:50;22.50;54.10
56300;DHT22;42209;6.376;-10.782;2023-04-25T07:01:38;22.40;53.20
56300;DHT22;42209;6.376;-10.782;2023-04-25T07:04:27;22.40;57.80
56300;DHT22;42209;6.376;-10.782;2023-04-25T07:06:58;22.50;61.40
56300;DHT22;42209;6.376;-10.782;2023-04-25T07:09:34;22.60;63.50
56300;DHT22;42209;6.376;-10.782;2023-04-25T07:12:02;22.80;64.80
56300;DHT22;42209;6.376;-10.782;2023-04-25T07:14:30;22.90;66.50
56300;DHT22;42209;6.376;-10.782;2023-04-25T07:16:59;23.10;67.70
56300;DHT22;42209;6.376;-10.782;2023-04-25T07:19:30;23.10;63.90
56300;DHT22;42209;6.376;-10.782;2023-04-25T07:22:01;22.80;59.10
56300;DHT22;42209;6.376;-10.782;2023-04-25T07:24:31;22.60;57.60
56300;DHT22;42209;6.376;-10.782;2023-04-25T07:27:00;22.50;57.60
56300;DHT22;42209;6.376;-10.782;2023-04-25T07:29:51;22.40;56.60
56300;DHT22;42209;6.376;-10.782;2023-04-25T07:32:22;22.40;55.10
56300;DHT22;42209;6.376;-10.782;2023-04-25T07:34:50;22.30;53.30
56300;DHT22;42209;6.376;-10.782;2023-04-25T07:37:19;22.20;52.00
56300;DHT22;42209;6.376;-10.782;2023-04-25T07:40:03;22.20;51.20
56300;DHT22;42209;6.376;-10.782;2023-04-25T07:42:32;22.10;51.90
56300;DHT22;42209;6.376;-10.782;2023-04-25T07:45:01;22.10;57.20
56300;DHT22;42209;6.376;-10.782;2023-04-25T07:47:30;22.20;59.90
56300;DHT22;42209;6.376;-10.782;2023-04-25T07:49:58;22.40;62.30
56300;DHT22;42209;6.376;-10.782;2023-04-25T07:52:27;22.60;64.40
56300;DHT22;42209;6.376;-10.782;2023-04-25T07:55:03;22.70;66.70
56300;DHT22;42209;6.376;-10.782;2023-04-25T07:57:41;22.80;68.10
56300;DHT22;42209;6.376;-10.782;2023-04-25T08:00:11;22.90;69.60
56300;DHT22;42209;6.376;-10.782;2023-04-25T08:02:49;23.00;71.80
56300;DHT22;42209;6.376;-10.782;2023-04-25T08:05:18;22.90;64.40
56300;DHT22;42209;6.376;-10.782;2023-04-25T08:07:57;22.50;60.80
56300;DHT22;42209;6.376;-10.782;2023-04-25T08:10:27;22.30;64.00
56300;DHT22;42209;6.376;-10.782;2023-04-25T08:12:55;22.50;66.90
56300;DHT22;42209;6.376;-10.782;2023-04-25T08:15:23;22.60;69.20
56300;DHT22;42209;6.376;-10.782;2023-04-25T08:17:52;22.80;71.60
56300;DHT22;42209;6.376;-10.782;2023-04-25T08:20:20;22.90;72.20
56300;DHT22;42209;6.376;-10.782;2023-04-25T08:22:51;23.00;73.50
56300;DHT22;42209;6.376;-10.782;2023-04-25T08:25:34;23.10;69.20
56300;DHT22;42209;6.376;-10.782;2023-04-25T08:28:02;22.70;63.20
56300;DHT22;42209;6.376;-10.782;2023-04-25T08:30:31;22.40;62.30
56300;DHT22;42209;6.376;-10.782;2023-04-25T08:32:59;22.40;66.80
56300;DHT22;42209;6.376;-10.782;2023-04-25T08:35:48;22.60;69.30
56300;DHT22;42209;6.376;-10.782;2023-04-25T08:38:17;22.80;70.30
56300;DHT22;42209;6.376;-10.782;2023-04-25T08:40:49;22.90;72.50
56300;DHT22;42209;6.376;-10.782;2023-04-25T08:43:20;23.00;73.60
56300;DHT22;42209;6.376;-10.782;2023-04-25T08:45:49;23.10;71.20
56300;DHT22;42209;6.376;-10.782;2023-04-25T08:48:28;22.80;65.70
56300;DHT22;42209;6.376;-10.782;2023-04-25T08:51:02;22.50;61.80
56300;DHT22;42209;6.376;-10.782;2023-04-25T08:53:34;22.40;67.60
56300;DHT22;42209;6.376;-10.782;2023-04-25T08:56:06;22.60;69.20
56300;DHT22;42209;6.376;-10.782;2023-04-25T08:58:36;22.80;71.30
56300;DHT22;42209;6.376;-10.782;2023-04-25T09:01:05;22.90;73.50
56300;DHT22;42209;6.376;-10.782;2023-04-25T09:03:42;23.10;73.80
56300;DHT22;42209;6.376;-10.782;2023-04-25T09:06:12;23.10;71.00
56300;DHT22;42209;6.376;-10.782;2023-04-25T09:08:41;22.90;65.50
56300;DHT22;42209;6.376;-10.782;2023-04-25T09:11:10;22.60;61.70
56300;DHT22;42209;6.376;-10.782;2023-04-25T09:13:38;22.50;67.40
56300;DHT22;42209;6.376;-10.782;2023-04-25T09:16:59;22.70;69.30
56300;DHT22;42209;6.376;-10.782;2023-04-25T09:19:53;22.90;70.80
56300;DHT22;42209;6.376;-10.782;2023-04-25T09:22:26;23.00;73.70
56300;DHT22;42209;6.376;-10.782;2023-04-25T09:24:54;23.10;74.80
56300;DHT22;42209;6.376;-10.782;2023-04-25T09:27:26;22.90;67.40
56300;DHT22;42209;6.376;-10.782;2023-04-25T09:30:18;22.60;62.20
56300;DHT22;42209;6.376;-10.782;2023-04-25T09:33:10;22.40;65.40
56300;DHT22;42209;6.376;-10.782;2023-04-25T09:35:44;22.50;68.20
56300;DHT22;42209;6.376;-10.782;2023-04-25T09:38:21;22.70;69.80
56300;DHT22;42209;6.376;-10.782;2023-04-25T09:40:57;22.80;71.80
56300;DHT22;42209;6.376;-10.782;2023-04-25T09:43:49;23.00;73.00
56300;DHT22;42209;6.376;-10.782;2023-04-25T09:46:18;23.10;73.90
56300;DHT22;42209;6.376;-10.782;2023-04-25T09:48:52;22.90;65.00
56300;DHT22;42209;6.376;-10.782;2023-04-25T09:51:29;22.50;60.30
56300;DHT22;42209;6.376;-10.782;2023-04-25T09:53:59;22.40;64.90
56300;DHT22;42209;6.376;-10.782;2023-04-25T09:56:45;22.60;67.70
56300;DHT22;42209;6.376;-10.782;2023-04-25T09:59:16;22.70;69.30
56300;DHT22;42209;6.376;-10.782;2023-04-25T10:01:48;22.90;71.20
56300;DHT22;42209;6.376;-10.782;2023-04-25T10:04:28;23.00;73.50
56300;DHT22;42209;6.376;-10.782;2023-04-25T10:07:08;23.10;72.40
56300;DHT22;42209;6.376;-10.782;2023-04-25T10:09:38;22.90;64.50
56300;DHT22;42209;6.376;-10.782;2023-04-25T10:12:07;22.50;60.10
56300;DHT22;42209;6.376;-10.782;2023-04-25T10:14:35;22.50;65.70
56300;DHT22;42209;6.376;-10.782;2023-04-25T10:17:04;22.60;67.80
56300;DHT22;42209;6.376;-10.782;2023-04-25T10:19:32;22.80;70.40
56300;DHT22;42209;6.376;-10.782;2023-04-25T10:22:08;22.90;71.30
56300;DHT22;42209;6.376;-10.782;2023-04-25T10:24:39;23.10;73.00
56300;DHT22;42209;6.376;-10.782;2023-04-25T10:27:08;23.10;72.30
56300;DHT22;42209;6.376;-10.782;2023-04-25T10:29:37;22.90;64.90
56300;DHT22;42209;6.376;-10.782;2023-04-25T10:32:05;22.50;60.30
56300;DHT22;42209;6.376;-10.782;2023-04-25T10:34:44;22.40;65.10
56300;DHT22;42209;6.376;-10.782;2023-04-25T10:37:12;22.60;67.60
56300;DHT22;42209;6.376;-10.782;2023-04-25T10:39:41;22.80;70.00
56300;DHT22;42209;6.376;-10.782;2023-04-25T10:42:10;22.90;71.40
56300;DHT22;42209;6.376;-10.782;2023-04-25T10:44:39;23.10;73.20
56300;DHT22;42209;6.376;-10.782;2023-04-25T10:47:08;23.10;70.10
56300;DHT22;42209;6.376;-10.782;2023-04-25T10:49:43;22.80;64.10
56300;DHT22;42209;6.376;-10.782;2023-04-25T10:52:27;22.50;60.40
56300;DHT22;42209;6.376;-10.782;2023-04-25T10:54:56;22.50;66.40
56300;DHT22;42209;6.376;-10.782;2023-04-25T10:57:42;22.60;68.90
56300;DHT22;42209;6.376;-10.782;2023-04-25T11:00:13;22.80;71.20
56300;DHT22;42209;6.376;-10.782;2023-04-25T11:02:53;23.00;73.00
56300;DHT22;42209;6.376;-10.782;2023-04-25T11:05:35;23.10;70.30
56300;DHT22;42209;6.376;-10.782;2023-04-25T11:08:26;22.80;64.40
56300;DHT22;42209;6.376;-10.782;2023-04-25T11:10:59;22.40;61.20
56300;DHT22;42209;6.376;-10.782;2023-04-25T11:13:31;22.50;66.20
56300;DHT22;42209;6.376;-10.782;2023-04-25T11:15:59;22.70;68.80
56300;DHT22;42209;6.376;-10.782;2023-04-25T11:18:43;22.90;70.70
56300;DHT22;42209;6.376;-10.782;2023-04-25T11:21:13;23.00;72.40
56300;DHT22;42209;6.376;-10.782;2023-04-25T11:23:42;23.10;73.10
56300;DHT22;42209;6.376;-10.782;2023-04-25T11:26:13;23.00;65.70
56300;DHT22;42209;6.376;-10.782;2023-04-25T11:28:45;22.60;61.10
56300;DHT22;42209;6.376;-10.782;2023-04-25T11:31:13;22.40;63.50
56300;DHT22;42209;6.376;-10.782;2023-04-25T11:33:41;22.50;66.30
56300;DHT22;42209;6.376;-10.782;2023-04-25T11:36:10;22.70;68.80
56300;DHT22;42209;6.376;-10.782;2023-04-25T11:38:38;22.90;70.70
56300;DHT22;42209;6.376;-10.782;2023-04-25T11:41:06;23.10;72.20
56300;DHT22;42209;6.376;-10.782;2023-04-25T11:43:35;23.20;69.40
56300;DHT22;42209;6.376;-10.782;2023-04-25T11:46:07;22.80;63.40
56300;DHT22;42209;6.376;-10.782;2023-04-25T11:48:42;22.50;59.90
56300;DHT22;42209;6.376;-10.782;2023-04-25T11:51:10;22.50;65.70
56300;DHT22;42209;6.376;-10.782;2023-04-25T11:53:42;22.70;67.70
56300;DHT22;42209;6.376;-10.782;2023-04-25T11:56:12;22.90;69.50
56300;DHT22;42209;6.376;-10.782;2023-04-25T11:58:57;23.10;72.00
56300;DHT22;42209;6.376;-10.782;2023-04-25T12:01:37;23.20;73.00
56300;DHT22;42209;6.376;-10.782;2023-04-25T12:04:17;23.00;65.40
56300;DHT22;42209;6.376;-10.782;2023-04-25T12:06:47;22.70;60.90
56300;DHT22;42209;6.376;-10.782;2023-04-25T12:09:18;22.50;62.20
56300;DHT22;42209;6.376;-10.782;2023-04-25T12:11:48;22.60;65.70
56300;DHT22;42209;6.376;-10.782;2023-04-25T12:14:27;22.80;68.30
56300;DHT22;42209;6.376;-10.782;2023-04-25T12:16:57;23.00;70.20
56300;DHT22;42209;6.376;-10.782;2023-04-25T12:19:26;23.20;72.10
56300;DHT22;42209;6.376;-10.782;2023-04-25T12:22:00;23.10;66.90
56300;DHT22;42209;6.376;-10.782;2023-04-25T12:24:32;22.80;61.50
56300;DHT22;42209;6.376;-10.782;2023-04-25T12:27:06;22.50;59.80
56300;DHT22;42209;6.376;-10.782;2023-04-25T12:29:35;22.60;65.10
56300;DHT22;42209;6.376;-10.782;2023-04-25T12:32:06;22.70;67.60
56300;DHT22;42209;6.376;-10.782;2023-04-25T12:34:34;23.00;69.70
56300;DHT22;42209;6.376;-10.782;2023-04-25T12:37:02;23.20;71.70
56300;DHT22;42209;6.376;-10.782;2023-04-25T12:39:30;23.20;70.60
56300;DHT22;42209;6.376;-10.782;2023-04-25T12:41:59;23.00;64.40
56300;DHT22;42209;6.376;-10.782;2023-04-25T12:44:27;22.70;60.60
56300;DHT22;42209;6.376;-10.782;2023-04-25T12:46:55;22.60;63.50
56300;DHT22;42209;6.376;-10.782;2023-04-25T12:49:24;22.70;66.20
56300;DHT22;42209;6.376;-10.782;2023-04-25T12:51:52;22.90;68.30
56300;DHT22;42209;6.376;-10.782;2023-04-25T12:54:20;23.10;70.50
56300;DHT22;42209;6.376;-10.782;2023-04-25T12:56:49;23.20;71.10
56300;DHT22;42209;6.376;-10.782;2023-04-25T12:59:17;23.20;64.80
56300;DHT22;42209;6.376;-10.782;2023-04-25T13:01:45;22.90;61.50
56300;DHT22;42209;6.376;-10.782;2023-04-25T13:04:14;22.80;59.70
56300;DHT22;42209;6.376;-10.782;2023-04-25T13:06:42;22.60;58.20
56300;DHT22;42209;6.376;-10.782;2023-04-25T13:09:11;22.60;57.00
56300;DHT22;42209;6.376;-10.782;2023-04-25T13:11:39;22.60;56.00
56300;DHT22;42209;6.376;-10.782;2023-04-25T13:14:08;22.50;54.60
56300;DHT22;42209;6.376;-10.782;2023-04-25T13:16:36;22.50;53.40
56300;DHT22;42209;6.376;-10.782;2023-04-25T13:19:05;22.50;52.60
56300;DHT22;42209;6.376;-10.782;2023-04-25T13:21:33;22.40;51.80
56300;DHT22;42209;6.376;-10.782;2023-04-25T13:24:02;22.40;51.00
56300;DHT22;42209;6.376;-10.782;2023-04-25T13:26:30;22.40;50.50
56300;DHT22;42209;6.376;-10.782;2023-04-25T13:28:59;22.40;50.30
56300;DHT22;42209;6.376;-10.782;2023-04-25T13:31:27;22.30;49.50
56300;DHT22;42209;6.376;-10.782;2023-04-25T13:33:56;22.30;49.00
56300;DHT22;42209;6.376;-10.782;2023-04-25T13:36:25;22.20;48.70
56300;DHT22;42209;6.376;-10.782;2023-04-25T13:38:54;22.20;49.10
56300;DHT22;42209;6.376;-10.782;2023-04-25T13:41:22;22.20;48.30
56300;DHT22;42209;6.376;-10.782;2023-04-25T13:43:50;22.10;47.90
56300;DHT22;42209;6.376;-10.782;2023-04-25T13:46:19;22.10;47.80
56300;DHT22;42209;6.376;-10.782;2023-04-25T13:49:10;22.00;47.40
56300;DHT22;42209;6.376;-10.782;2023-04-25T13:51:40;22.10;47.30
56300;DHT22;42209;6.376;-10.782;2023-04-25T13:54:08;22.00;46.80
56300;DHT22;42209;6.376;-10.782;2023-04-25T13:56:37;22.00;46.30
56300;DHT22;42209;6.376;-10.782;2023-04-25T13:59:05;22.00;46.40
56300;DHT22;42209;6.376;-10.782;2023-04-25T14:01:36;22.00;53.10
56300;DHT22;42209;6.376;-10.782;2023-04-25T14:04:04;22.30;57.00
56300;DHT22;42209;6.376;-10.782;2023-04-25T14:06:33;22.50;59.80
56300;DHT22;42209;6.376;-10.782;2023-04-25T14:09:01;22.70;61.30
56300;DHT22;42209;6.376;-10.782;2023-04-25T14:11:30;22.90;63.30
56300;DHT22;42209;6.376;-10.782;2023-04-25T14:13:58;22.80;58.20
56300;DHT22;42209;6.376;-10.782;2023-04-25T14:16:27;22.70;56.00
56300;DHT22;42209;6.376;-10.782;2023-04-25T14:18:55;22.50;55.30
56300;DHT22;42209;6.376;-10.782;2023-04-25T14:21:23;22.40;55.00
56300;DHT22;42209;6.376;-10.782;2023-04-25T14:23:52;22.40;55.50
56300;DHT22;42209;6.376;-10.782;2023-04-25T14:26:21;22.40;55.10
56300;DHT22;42209;6.376;-10.782;2023-04-25T14:28:51;22.40;55.10
56300;DHT22;42209;6.376;-10.782;2023-04-25T14:31:19;22.40;54.50
56300;DHT22;42209;6.376;-10.782;2023-04-25T14:33:48;22.40;54.70
56300;DHT22;42209;6.376;-10.782;2023-04-25T14:36:16;22.40;54.90
56300;DHT22;42209;6.376;-10.782;2023-04-25T14:38:44;22.40;55.20
56300;DHT22;42209;6.376;-10.782;2023-04-25T14:41:13;22.40;55.80
56300;DHT22;42209;6.376;-10.782;2023-04-25T14:43:41;22.40;54.40
56300;DHT22;42209;6.376;-10.782;2023-04-25T14:46:10;22.20;52.80
56300;DHT22;42209;6.376;-10.782;2023-04-25T14:48:42;22.20;51.60
56300;DHT22;42209;6.376;-10.782;2023-04-25T14:51:10;22.20;56.50
56300;DHT22;42209;6.376;-10.782;2023-04-25T14:53:40;22.40;60.10
56300;DHT22;42209;6.376;-10.782;2023-04-25T14:56:08;22.60;62.50
56300;DHT22;42209;6.376;-10.782;2023-04-25T14:58:36;22.80;64.90
56300;DHT22;42209;6.376;-10.782;2023-04-25T15:01:05;23.00;66.40
56300;DHT22;42209;6.376;-10.782;2023-04-25T15:03:33;22.90;61.50
56300;DHT22;42209;6.376;-10.782;2023-04-25T15:06:02;22.70;57.70
56300;DHT22;42209;6.376;-10.782;2023-04-25T15:08:30;22.50;55.80
56300;DHT22;42209;6.376;-10.782;2023-04-25T15:10:58;22.40;54.80
56300;DHT22;42209;6.376;-10.782;2023-04-25T15:13:27;22.50;61.10
56300;DHT22;42209;6.376;-10.782;2023-04-25T15:15:55;22.80;63.90
56300;DHT22;42209;6.376;-10.782;2023-04-25T15:18:23;23.00;65.20
56300;DHT22;42209;6.376;-10.782;2023-04-25T15:20:53;23.10;62.40
56300;DHT22;42209;6.376;-10.782;2023-04-25T15:23:22;23.00;58.20
56300;DHT22;42209;6.376;-10.782;2023-04-25T15:25:50;22.80;56.40
56300;DHT22;42209;6.376;-10.782;2023-04-25T15:28:21;22.80;54.70
56300;DHT22;42209;6.376;-10.782;2023-04-25T15:30:50;22.70;53.70
56300;DHT22;42209;6.376;-10.782;2023-04-25T15:33:18;22.70;52.70
56300;DHT22;42209;6.376;-10.782;2023-04-25T15:35:46;22.60;52.00
56300;DHT22;42209;6.376;-10.782;2023-04-25T15:38:14;22.60;51.50
56300;DHT22;42209;6.376;-10.782;2023-04-25T15:40:43;22.60;50.70
56300;DHT22;42209;6.376;-10.782;2023-04-25T15:43:11;22.60;50.30
56300;DHT22;42209;6.376;-10.782;2023-04-25T15:45:40;22.60;49.70